Time;durP1;ratioP1;P1;durP2;ratioP2;P2;SDS_P1;SDS_P2;PMS_P1;PMS_P2;Temp;Humidity;BMP_temperature;BMP_pressure;BME280_temperature;BME280_humidity;BME280_pressure;Samples;Min_cycle;Max_cycle;Signal;HPM_P1;HPM_P2
2023/05/01 00:01:52;;;;;;;2.10;1.77;;;10.30;58.40;;;9.75;57.84;98016.97;5032535;28;20448;-73
2023/05/01 00:04:20;;;;;;;3.10;2.67;;;10.30;58.20;;;9.85;57.74;98024.63;5050499;28;20582;-73
2023/05/01 00:06:48;;;;;;;1.97;1.87;;;10.30;58.30;;;9.81;57.68;98024.25;5039514;28;20492;-73
2023/05/01 00:09:15;;;;;;;3.23;1.70;;;10.30;58.00;;;9.83;57.05;98030.25;5038228;28;20455;-72
2023/05/01 00:11:42;;;;;;;2.10;1.90;;;10.30;58.00;;;9.80;57.43;98019.91;5022370;28;20952;-73
2023/05/01 00:14:11;;;;;;;2.17;2.00;;;10.30;57.80;;;9.72;57.81;98002.06;5034918;28;20453;-76
2023/05/01 00:16:38;;;;;;;2.30;2.10;;;10.30;57.90;;;9.82;56.86;98017.81;5031530;28;20449;-73
2023/05/01 00:19:07;;;;;;;2.00;1.90;;;10.20;57.90;;;9.52;56.79;98002.09;5052773;28;20454;-69
2023/05/01 00:21:35;;;;;;;2.07;1.83;;;10.20;57.60;;;9.60;57.27;97988.34;5018530;28;20798;-72
2023/05/01 00:24:02;;;;;;;1.83;1.73;;;10.20;57.70;;;9.61;56.58;97995.41;5038209;28;20455;-73
2023/05/01 00:26:30;;;;;;;2.47;2.00;;;10.20;57.50;;;9.20;56.62;97935.31;5040962;28;20464;-70
2023/05/01 00:28:58;;;;;;;2.03;1.83;;;10.20;57.40;;;9.37;56.88;97971.81;5038795;28;20460;-73
2023/05/01 00:31:27;;;;;;;1.70;1.60;;;10.10;57.50;;;9.45;56.59;97967.03;5036771;28;20493;-72
2023/05/01 00:33:54;;;;;;;1.83;1.73;;;10.10;57.30;;;9.56;56.93;97987.13;5033095;28;20477;-75
2023/05/01 00:36:21;;;;;;;2.73;1.63;;;10.10;57.30;;;9.55;56.81;97981.94;5012788;28;20486;-72
2023/05/01 00:38:49;;;;;;;2.70;1.73;;;10.10;57.00;;;9.53;56.54;97976.78;5015256;28;20465;-76
2023/05/01 00:41:16;;;;;;;3.33;2.40;;;10.10;57.20;;;9.57;56.20;97988.78;5026622;28;20449;-72
2023/05/01 00:43:43;;;;;;;2.00;1.67;;;10.10;56.90;;;9.56;56.20;97992.53;5030522;28;20446;-73
2023/05/01 00:46:11;;;;;;;2.03;1.80;;;10.10;56.80;;;9.55;56.41;97985.47;5032348;28;20462;-72
2023/05/01 00:48:40;;;;;;;2.10;1.90;;;10.10;56.60;;;9.46;56.06;97970.53;5015355;28;20458;-72
2023/05/01 00:51:08;;;;;;;2.43;1.80;;;10.10;56.50;;;9.52;56.24;97975.13;5015589;28;20467;-74
2023/05/01 00:53:35;;;;;;;2.23;2.00;;;10.10;56.30;;;9.50;55.69;97980.69;5015058;28;20472;-72
2023/05/01 00:56:07;;;;;;;2.87;2.00;;;10.00;56.20;;;9.51;55.96;97973.44;5017627;28;20503;-75
2023/05/01 00:58:35;;;;;;;3.07;2.23;;;10.00;56.20;;;9.29;55.94;97938.63;5039619;28;20813;-74
2023/05/01 01:01:03;;;;;;;1.83;1.73;;;10.00;56.10;;;9.46;55.55;97959.75;5015277;28;20453;-72
2023/05/01 01:03:31;;;;;;;2.80;2.50;;;10.00;56.20;;;9.46;55.84;97966.00;5033109;28;21209;-73
2023/05/01 01:06:10;;;;;;;2.60;2.20;;;10.00;56.20;;;9.44;55.77;97956.44;5016712;28;20531;-74
2023/05/01 01:08:43;;;;;;;2.13;1.93;;;10.00;56.20;;;9.33;56.00;97956.06;5025677;28;20460;-74
2023/05/01 01:11:21;;;;;;;2.30;2.10;;;10.00;56.20;;;8.92;56.38;97895.13;5026755;28;20551;-73
2023/05/01 01:13:58;;;;;;;2.60;1.93;;;9.90;57.10;;;9.26;56.26;97943.63;5042617;28;20473;-72
2023/05/01 01:16:32;;;;;;;2.30;2.10;;;9.80;57.30;;;8.59;56.88;97850.16;5021771;28;20445;-72
2023/05/01 01:19:42;;;;;;;2.03;1.90;;;9.80;57.40;;;8.73;56.98;97861.75;5045940;28;20810;-75
2023/05/01 01:22:16;;;;;;;2.37;2.17;;;9.80;57.40;;;8.26;56.49;97789.84;5014126;28;20563;-73
2023/05/01 01:25:20;;;;;;;2.77;2.17;;;9.80;57.60;;;9.21;56.57;97946.94;5030609;28;20466;-74
2023/05/01 01:28:17;;;;;;;2.13;1.90;;;9.70;57.60;;;9.11;57.31;97946.50;5027384;28;20447;-71
2023/05/01 01:31:13;;;;;;;2.50;2.30;;;9.70;57.50;;;9.00;56.99;97923.72;5028299;28;20543;-71
2023/05/01 01:34:13;;;;;;;2.90;2.70;;;9.70;57.80;;;9.15;57.48;97947.75;5037995;28;20486;-73
2023/05/01 01:37:01;;;;;;;2.43;2.23;;;9.60;57.90;;;8.87;57.03;97938.00;5031368;28;20472;-72
2023/05/01 01:39:38;;;;;;;3.03;2.40;;;9.60;57.80;;;8.95;57.36;97937.81;5034358;28;20484;-72
2023/05/01 01:42:10;;;;;;;2.70;2.37;;;9.50;58.00;;;8.83;57.48;97929.53;5031845;28;20528;-73
2023/05/01 01:44:42;;;;;;;3.40;2.30;;;9.50;58.20;;;8.44;58.01;97870.00;5049212;28;20807;-74
2023/05/01 01:47:14;;;;;;;2.30;2.10;;;9.40;58.10;;;8.68;57.55;97918.13;5029569;28;20544;-72
2023/05/01 01:49:50;;;;;;;2.70;2.47;;;9.40;58.20;;;8.70;58.52;97930.31;5016278;28;20464;-72
2023/05/01 01:52:22;;;;;;;2.37;2.03;;;9.30;58.30;;;8.73;58.07;97943.41;5049783;28;20461;-72
2023/05/01 01:54:53;;;;;;;2.67;2.47;;;9.30;58.40;;;8.56;58.40;97902.56;5023140;28;20447;-72
2023/05/01 01:57:24;;;;;;;2.63;2.40;;;9.30;58.40;;;8.65;57.87;97919.34;5026273;28;20459;-73
2023/05/01 01:59:52;;;;;;;3.77;2.67;;;9.30;58.50;;;8.71;57.80;97931.97;5031183;28;20447;-73
2023/05/01 02:02:31;;;;;;;4.30;2.43;;;9.20;58.40;;;8.66;57.64;97937.16;5022282;28;20543;-73
2023/05/01 02:05:03;;;;;;;3.63;2.70;;;9.20;58.30;;;8.44;58.45;97914.91;5048879;28;20506;-74
2023/05/01 02:07:33;;;;;;;5.10;2.70;;;9.20;58.30;;;8.59;58.17;97929.06;5035472;28;20457;-72
2023/05/01 02:10:02;;;;;;;3.07;2.70;;;9.20;58.30;;;8.41;58.14;97908.06;5029339;28;20447;-73
2023/05/01 02:12:33;;;;;;;5.13;2.57;;;9.10;58.20;;;8.20;58.27;97872.22;5023587;28;20481;-72
2023/05/01 02:15:01;;;;;;;4.00;2.70;;;9.10;58.20;;;8.45;58.37;97903.97;5043487;28;20604;-72
2023/05/01 02:17:35;;;;;;;2.43;2.23;;;9.10;58.30;;;8.30;58.38;97887.16;5034682;28;20551;-72
2023/05/01 02:20:06;;;;;;;2.53;2.20;;;9.10;58.30;;;8.52;57.86;97922.00;5033974;28;20464;-72
2023/05/01 02:22:34;;;;;;;4.57;3.40;;;9.10;58.30;;;8.47;58.01;97915.34;5033227;28;20456;-72
2023/05/01 02:25:03;;;;;;;4.20;3.40;;;9.10;58.30;;;8.31;58.15;97880.75;5038621;28;20463;-72
2023/05/01 02:27:36;;;;;;;4.60;2.90;;;9.10;58.40;;;8.23;57.96;97871.00;5048499;28;20958;-74
2023/05/01 02:30:05;;;;;;;4.83;2.73;;;9.00;58.30;;;7.82;58.19;97821.63;5022086;28;21193;-75
2023/05/01 02:32:33;;;;;;;3.40;3.10;;;9.00;58.40;;;8.29;58.62;97886.31;5032040;28;20994;-73
2023/05/01 02:35:01;;;;;;;5.53;2.87;;;9.00;58.60;;;8.34;58.80;97899.16;5014521;28;20464;-72
2023/05/01 02:37:31;;;;;;;3.17;2.90;;;9.00;58.50;;;8.39;58.81;97902.06;5044360;28;20453;-71
2023/05/01 02:39:59;;;;;;;3.80;2.67;;;8.90;58.60;;;8.38;59.01;97896.91;5035666;28;20455;-71
2023/05/01 02:42:27;;;;;;;6.10;3.00;;;8.90;58.80;;;8.36;58.78;97908.72;5042367;28;20460;-73
2023/05/01 02:45:00;;;;;;;4.30;3.40;;;8.90;58.90;;;8.34;59.26;97899.16;5052529;28;20464;-75
2023/05/01 02:47:30;;;;;;;4.00;2.80;;;8.90;58.90;;;8.14;59.23;97878.44;5066650;28;20454;-71
2023/05/01 02:49:59;;;;;;;3.40;3.10;;;8.90;58.90;;;8.25;59.50;97895.00;5045317;28;20439;-71
2023/05/01 02:52:28;;;;;;;4.80;3.97;;;8.80;59.00;;;8.21;59.24;97886.53;5051843;28;20547;-74
2023/05/01 02:54:56;;;;;;;3.57;3.27;;;8.80;59.00;;;8.06;59.14;97882.13;5029524;28;20831;-72
2023/05/01 02:57:24;;;;;;;4.47;3.33;;;8.80;59.10;;;8.13;59.41;97884.84;5047316;28;20478;-71
2023/05/01 02:59:52;;;;;;;3.37;3.07;;;8.80;59.20;;;8.16;59.08;97897.88;5056383;28;20529;-73
2023/05/01 03:02:19;;;;;;;2.73;2.53;;;8.70;59.20;;;8.13;59.39;97898.31;5037484;28;21113;-71
2023/05/01 03:04:47;;;;;;;4.50;3.70;;;8.70;59.20;;;7.94;59.46;97868.41;5047500;28;20878;-73
2023/05/01 03:07:15;;;;;;;4.80;2.97;;;8.70;59.20;;;8.08;59.81;97892.69;5052098;28;20459;-72
2023/05/01 03:09:43;;;;;;;5.17;3.77;;;8.70;59.30;;;7.92;59.58;97865.09;5059942;28;20462;-71
2023/05/01 03:12:11;;;;;;;4.73;3.30;;;8.70;59.40;;;8.07;59.58;97888.31;5039391;28;20450;-72
2023/05/01 03:14:38;;;;;;;4.63;3.60;;;8.60;59.60;;;7.73;59.71;97844.34;5021112;28;20477;-71
2023/05/01 03:17:05;;;;;;;6.60;3.80;;;8.60;59.70;;;7.99;59.77;97892.03;5024232;28;20451;-71
2023/05/01 03:19:33;;;;;;;5.80;4.30;;;8.50;59.50;;;7.72;59.76;97858.84;5020031;28;20462;-71
2023/05/01 03:22:00;;;;;;;3.43;3.13;;;8.50;59.70;;;7.37;60.03;97814.84;5018338;28;20457;-71
2023/05/01 03:24:28;;;;;;;4.57;3.40;;;8.50;59.60;;;7.68;59.49;97839.56;5019691;28;20459;-72
2023/05/01 03:26:56;;;;;;;4.20;3.80;;;8.50;59.70;;;7.73;59.59;97839.78;5027244;28;20456;-73
2023/05/01 03:29:23;;;;;;;5.53;3.63;;;8.50;59.70;;;7.70;59.91;97852.84;5047159;28;20539;-71
2023/05/01 03:31:56;;;;;;;4.53;3.77;;;8.50;59.70;;;7.48;60.38;97816.13;5046217;28;20456;-71
2023/05/01 03:34:23;;;;;;;4.70;4.20;;;8.50;59.70;;;7.91;59.71;97873.41;5026591;28;20474;-72
2023/05/01 03:36:50;;;;;;;4.37;3.97;;;8.50;59.80;;;7.88;59.96;97873.78;5001557;28;20584;-71
2023/05/01 03:39:19;;;;;;;4.00;3.57;;;8.50;59.80;;;7.93;59.75;97876.72;5027919;28;20456;-71
2023/05/01 03:41:47;;;;;;;3.90;3.50;;;8.50;59.80;;;7.69;59.92;97832.34;5040371;28;20449;-70
2023/05/01 03:46:57;;;;;;;4.70;3.80;;;8.50;59.70;;;7.32;59.89;97768.91;5038786;28;20847;-71
2023/05/01 03:49:25;;;;;;;4.90;3.57;;;8.50;59.70;;;7.99;59.82;97865.13;5046675;28;20518;-71
2023/05/01 03:51:52;;;;;;;3.97;3.40;;;8.50;59.70;;;7.91;59.46;97858.06;5037962;28;20461;-71
2023/05/01 03:54:20;;;;;;;4.83;3.50;;;8.50;59.60;;;7.93;59.50;97860.56;5041638;28;20464;-71
2023/05/01 03:56:47;;;;;;;4.37;3.63;;;8.50;59.70;;;7.72;59.77;97845.38;5042715;28;20852;-72
2023/05/01 03:59:16;;;;;;;7.73;3.70;;;8.50;59.50;;;7.80;59.53;97845.19;5046706;28;20533;-72
2023/05/01 04:01:43;;;;;;;3.63;3.20;;;8.50;59.70;;;7.95;59.64;97858.50;5019888;28;20462;-74
2023/05/01 04:04:11;;;;;;;9.27;4.43;;;8.50;59.80;;;7.81;59.76;97841.50;5022746;28;20465;-72
2023/05/01 04:06:38;;;;;;;3.93;3.50;;;8.40;59.90;;;7.83;59.67;97850.19;5047228;28;20449;-72
2023/05/01 04:09:07;;;;;;;3.80;3.00;;;8.40;59.70;;;7.07;59.70;97725.63;5055240;28;20464;-72
2023/05/01 04:11:34;;;;;;;5.00;3.70;;;8.40;59.80;;;7.60;59.49;97816.38;5057524;28;20460;-70
2023/05/01 04:14:03;;;;;;;4.47;3.80;;;8.40;59.70;;;7.62;59.60;97811.63;5037722;28;20480;-72
2023/05/01 04:16:32;;;;;;;3.80;3.40;;;8.40;59.80;;;7.64;59.58;97817.63;5038787;28;20583;-73
2023/05/01 04:19:00;;;;;;;4.27;3.70;;;8.40;59.80;;;7.94;59.67;97852.28;5034116;28;20467;-73
2023/05/01 04:21:27;;;;;;;6.87;4.00;;;8.40;59.70;;;7.88;59.41;97850.41;5031637;28;20469;-72
2023/05/01 04:23:55;;;;;;;4.57;3.93;;;8.50;59.50;;;7.96;58.89;97864.69;5042763;28;20967;-73
2023/05/01 04:26:22;;;;;;;4.37;3.97;;;8.50;59.60;;;7.67;58.84;97807.53;5022134;28;20460;-72
2023/05/01 04:28:50;;;;;;;7.13;4.00;;;8.50;59.50;;;7.91;59.23;97841.91;5025880;28;20461;-73
2023/05/01 04:31:18;;;;;;;3.30;2.63;;;8.50;59.20;;;7.93;58.65;97817.53;5056604;28;20457;-73
2023/05/01 04:33:46;;;;;;;4.23;3.90;;;8.60;59.30;;;8.02;58.44;97823.53;5041439;28;20481;-71
2023/05/01 04:36:15;;;;;;;3.93;3.60;;;8.70;59.10;;;7.78;58.04;97785.41;5035050;28;20549;-72
2023/05/01 04:38:43;;;;;;;3.77;3.33;;;8.80;58.90;;;7.96;57.51;97794.75;5028287;28;20454;-72
2023/05/01 04:41:12;;;;;;;5.13;4.37;;;8.80;58.90;;;8.22;57.96;97869.34;5040099;28;20510;-72
2023/05/01 04:43:42;;;;;;;5.33;4.47;;;8.90;58.40;;;8.13;57.42;97844.47;5042260;28;20469;-73
2023/05/01 04:46:09;;;;;;;6.60;4.07;;;8.90;58.20;;;8.57;57.19;97857.59;5031799;28;20488;-75
2023/05/01 04:48:37;;;;;;;4.20;3.80;;;9.10;58.20;;;8.18;56.87;97790.84;5046506;28;20515;-72
2023/05/01 04:51:06;;;;;;;4.20;3.60;;;9.20;57.70;;;8.59;56.92;97863.63;5023976;28;20463;-75
2023/05/01 04:53:33;;;;;;;4.43;3.60;;;9.20;57.70;;;8.69;56.68;97864.00;5047717;28;20825;-75
2023/05/01 04:56:01;;;;;;;5.87;4.13;;;9.40;57.40;;;8.40;56.40;97844.50;5015493;28;20459;-73
2023/05/01 04:58:29;;;;;;;5.27;3.83;;;9.30;57.30;;;8.50;57.04;97871.88;5021004;28;20552;-73
2023/05/01 05:00:56;;;;;;;4.47;4.07;;;9.20;57.40;;;8.78;56.31;97862.78;5001293;28;20449;-75
2023/05/01 05:03:25;;;;;;;5.93;4.50;;;9.40;57.50;;;8.87;56.05;97859.88;5030484;28;20821;-73
2023/05/01 05:05:52;;;;;;;5.27;4.20;;;9.50;57.00;;;8.95;55.31;97861.50;5036454;28;20519;-73
2023/05/01 05:08:21;;;;;;;5.77;4.77;;;9.60;56.50;;;8.96;54.86;97833.56;5038123;28;20454;-71
2023/05/01 05:10:49;;;;;;;7.10;4.10;;;9.80;56.20;;;9.30;54.18;97845.91;5029004;28;20453;-71
2023/05/01 05:13:16;;;;;;;6.67;4.20;;;10.00;55.20;;;9.39;53.08;97770.19;5020779;28;20479;-73
2023/05/01 05:15:44;;;;;;;4.73;3.80;;;10.50;54.60;;;10.18;52.33;97849.06;5046931;28;20731;-71
2023/05/01 05:18:13;;;;;;;6.63;4.10;;;10.70;54.00;;;10.13;51.67;97821.06;5024805;28;20476;-71
2023/05/01 05:20:41;;;;;;;6.70;5.40;;;11.00;53.30;;;9.92;52.00;97834.66;5034051;28;20457;-70
2023/05/01 05:23:11;;;;;;;5.37;4.43;;;10.80;52.80;;;10.07;52.36;97836.25;5037814;28;20458;-73
2023/05/01 05:25:40;;;;;;;5.13;4.13;;;10.80;53.00;;;9.71;51.90;97832.28;5034405;28;20453;-77
2023/05/01 05:28:07;;;;;;;5.60;4.00;;;10.60;52.90;;;9.71;52.50;97816.09;5038456;28;20468;-73
2023/05/01 05:30:35;;;;;;;4.97;4.57;;;10.50;53.30;;;9.57;52.83;97836.94;5024689;28;20453;-75
2023/05/01 05:33:12;;;;;;;4.50;3.90;;;10.40;53.00;;;9.06;52.86;97751.22;5018208;28;20540;-75
2023/05/01 05:35:49;;;;;;;5.13;4.13;;;10.50;53.00;;;9.91;51.29;97789.84;5022363;28;20447;-74
2023/05/01 05:38:17;;;;;;;6.03;4.40;;;10.90;52.90;;;10.08;50.73;97773.13;5021626;28;20464;-74
2023/05/01 05:43:54;;;;;;;5.90;4.03;;;11.50;51.90;;;10.08;50.23;97713.72;5041032;28;21086;-73
2023/05/01 05:46:21;;;;;;;5.77;4.40;;;11.50;51.80;;;10.31;50.04;97731.22;5039934;28;20615;-72
2023/05/01 05:48:48;;;;;;;6.00;4.67;;;11.70;51.60;;;11.10;49.34;97829.88;5022419;28;20454;-69
2023/05/01 05:51:16;;;;;;;5.03;4.53;;;11.80;51.40;;;11.16;49.03;97832.50;5041942;28;20459;-69
2023/05/01 05:53:43;;;;;;;5.00;4.50;;;11.80;51.30;;;10.89;49.11;97830.06;5036352;28;20466;-70
2023/05/01 05:56:12;;;;;;;5.37;4.60;;;11.70;51.00;;;10.76;50.68;97827.47;5029089;28;20466;-70
2023/05/01 05:58:39;;;;;;;5.60;4.67;;;11.40;51.40;;;10.52;51.24;97821.03;5021337;28;20457;-71
2023/05/01 06:01:08;;;;;;;6.30;4.63;;;11.20;51.40;;;10.57;50.27;97805.81;5041087;28;20513;-71
2023/05/01 06:03:35;;;;;;;7.33;4.87;;;11.20;51.70;;;11.00;50.21;97817.72;5008417;28;20460;-71
2023/05/01 06:06:03;;;;;;;5.17;4.30;;;11.50;51.70;;;10.94;49.83;97815.06;5038299;28;20470;-71
2023/05/01 06:08:31;;;;;;;4.60;3.80;;;11.50;51.80;;;10.87;49.94;97796.22;5038906;28;20457;-71
2023/05/01 06:10:58;;;;;;;5.33;4.07;;;11.50;51.60;;;10.60;50.48;97693.78;5056610;28;20480;-69
2023/05/01 06:13:27;;;;;;;4.63;4.00;;;11.60;52.10;;;11.27;49.14;97806.59;5039395;28;20461;-71
2023/05/01 06:15:54;;;;;;;6.80;4.70;;;11.80;51.30;;;11.02;49.40;97815.63;5018991;28;20449;-72
2023/05/01 06:18:21;;;;;;;5.23;4.63;;;11.70;51.10;;;11.16;49.58;97810.06;5035760;28;20461;-72
2023/05/01 06:20:50;;;;;;;5.43;4.43;;;11.60;51.70;;;11.32;49.79;97801.34;5043725;28;20958;-72
2023/05/01 06:23:18;;;;;;;7.60;5.20;;;11.80;51.80;;;11.45;48.79;97800.38;5057064;28;20558;-71
2023/05/01 06:25:47;;;;;;;5.20;4.50;;;12.00;51.20;;;11.85;48.11;97812.56;5016607;28;20501;-71
2023/05/01 06:28:15;;;;;;;6.30;4.17;;;12.20;51.30;;;11.98;47.82;97813.44;5028575;28;21000;-71
2023/05/01 06:30:43;;;;;;;5.70;5.10;;;12.50;50.90;;;11.77;48.11;97791.25;5017774;28;20464;-72
2023/05/01 06:33:11;;;;;;;4.70;4.30;;;12.50;50.80;;;12.06;47.98;97813.16;5041017;28;20452;-71
2023/05/01 06:35:39;;;;;;;5.50;5.00;;;12.50;50.80;;;11.88;47.60;97774.19;5034407;28;20486;-72
2023/05/01 06:38:06;;;;;;;5.33;4.63;;;12.60;50.70;;;12.28;47.11;97807.22;5016571;28;20451;-72
2023/05/01 06:40:36;;;;;;;5.60;4.70;;;12.70;50.40;;;12.65;46.91;97806.22;5039410;28;20441;-72
2023/05/01 06:43:04;;;;;;;4.70;4.30;;;12.90;50.60;;;12.49;46.76;97748.09;5041391;28;20655;-74
2023/05/01 06:45:31;;;;;;;5.90;5.30;;;13.10;50.60;;;12.62;46.85;97788.53;5038672;28;21038;-72
2023/05/01 06:48:01;;;;;;;5.80;4.73;;;13.20;50.30;;;12.67;46.96;97791.38;5035735;28;20456;-72
2023/05/01 06:50:28;;;;;;;6.33;5.00;;;13.20;50.50;;;12.29;47.33;97779.91;5043410;28;20481;-73
2023/05/01 06:52:57;;;;;;;7.73;5.30;;;13.00;50.20;;;12.58;47.28;97801.72;5012114;28;20454;-73
2023/05/01 06:55:25;;;;;;;7.90;5.50;;;13.00;50.60;;;12.49;47.42;97788.75;5034816;28;20516;-72
2023/05/01 06:57:52;;;;;;;5.67;4.90;;;13.00;50.50;;;12.48;47.46;97793.38;5030834;28;20518;-72
2023/05/01 07:00:20;;;;;;;7.73;4.87;;;13.00;50.30;;;12.41;47.82;97790.75;5021403;28;20438;-72
2023/05/01 07:02:47;;;;;;;5.00;4.60;;;13.00;50.60;;;12.65;47.41;97776.41;5014919;28;20455;-70
2023/05/01 07:05:17;;;;;;;6.00;5.43;;;13.10;50.80;;;12.84;46.92;97812.38;5012876;28;20458;-73
2023/05/01 07:07:44;;;;;;;5.17;4.70;;;13.20;50.60;;;12.93;46.64;97800.09;5048383;28;20628;-72
2023/05/01 07:10:13;;;;;;;5.40;4.90;;;13.30;50.40;;;12.90;46.27;97803.28;5051501;28;20868;-72
2023/05/01 07:12:40;;;;;;;4.87;4.47;;;13.30;50.10;;;13.25;45.82;97786.16;5037820;28;20538;-70
2023/05/01 07:15:09;;;;;;;6.70;5.73;;;13.50;50.10;;;12.61;46.19;97760.63;5023672;28;20481;-72
2023/05/01 07:17:36;;;;;;;6.63;5.10;;;13.40;49.60;;;12.80;47.04;97793.03;5021745;28;20459;-71
2023/05/01 07:20:04;;;;;;;7.70;5.43;;;13.30;50.00;;;13.40;45.54;97787.53;5042855;28;20525;-71
2023/05/01 07:22:33;;;;;;;5.13;4.63;;;13.60;50.10;;;13.74;45.06;97787.72;5010730;28;20975;-71
2023/05/01 07:25:02;;;;;;;6.20;5.70;;;13.90;49.80;;;13.59;45.15;97789.06;5042093;28;20452;-72
2023/05/01 07:27:29;;;;;;;5.67;4.47;;;14.00;49.70;;;13.85;45.22;97777.88;5025706;28;20852;-75
2023/05/01 07:29:57;;;;;;;5.83;4.47;;;14.20;49.80;;;13.42;45.50;97775.38;5037785;28;20471;-73
2023/05/01 07:32:24;;;;;;;6.10;4.33;;;14.00;49.30;;;13.71;45.21;97771.91;5031841;28;20478;-71
2023/05/01 07:34:51;;;;;;;5.20;4.70;;;14.00;49.70;;;13.98;44.67;97757.75;5036953;28;20471;-74
2023/05/01 07:37:18;;;;;;;7.20;5.33;;;14.30;49.50;;;14.02;44.28;97767.88;5040177;28;20561;-72
2023/05/01 07:39:47;;;;;;;7.90;5.33;;;14.40;49.10;;;14.20;44.23;97757.06;5048139;28;20455;-71
2023/05/01 07:42:14;;;;;;;5.67;5.10;;;14.50;49.30;;;14.48;43.69;97758.03;5020516;28;20455;-72
2023/05/01 07:44:41;;;;;;;5.20;4.37;;;14.70;49.20;;;14.58;42.70;97760.91;5044578;28;20821;-73
2023/05/01 07:47:09;;;;;;;5.50;4.97;;;15.00;48.70;;;14.64;43.09;97751.78;5023180;28;20459;-74
2023/05/01 07:49:37;;;;;;;5.13;4.63;;;15.00;48.90;;;14.87;42.83;97755.41;5023932;28;20991;-73
2023/05/01 07:52:05;;;;;;;4.53;4.10;;;15.20;48.70;;;15.47;42.41;97761.09;5040823;28;20468;-73
2023/05/01 07:54:33;;;;;;;5.00;4.50;;;15.50;48.80;;;15.50;41.31;97757.84;5038043;28;20484;-73
2023/05/01 07:57:02;;;;;;;6.77;5.00;;;15.90;48.00;;;15.11;42.17;97755.19;5022606;28;20471;-74
2023/05/01 07:59:29;;;;;;;4.53;4.10;;;15.70;47.60;;;15.66;41.67;97747.13;5041965;28;20470;-76
2023/05/01 08:01:57;;;;;;;4.90;4.50;;;15.90;48.40;;;16.03;40.83;97751.94;5040578;28;20465;-75
2023/05/01 08:04:24;;;;;;;5.80;5.30;;;16.20;47.90;;;15.33;41.31;97752.50;5045244;28;20465;-73
2023/05/01 08:06:52;;;;;;;5.77;5.17;;;15.90;47.40;;;15.36;41.63;97751.97;5040723;28;20468;-72
2023/05/01 08:09:19;;;;;;;5.00;4.50;;;15.70;47.40;;;15.24;42.16;97741.22;5038829;28;20514;-73
2023/05/01 08:11:46;;;;;;;4.63;4.13;;;15.60;47.70;;;15.41;41.70;97748.50;5038409;28;20464;-70
2023/05/01 08:14:16;;;;;;;4.77;4.27;;;15.80;47.60;;;15.34;41.49;97742.41;5043166;28;20556;-73
2023/05/01 08:16:44;;;;;;;4.93;4.43;;;15.80;47.40;;;15.02;42.14;97686.78;5031747;28;20536;-71
2023/05/01 08:19:11;;;;;;;8.23;4.37;;;15.70;47.60;;;15.41;41.61;97732.16;5021283;28;21015;-73
2023/05/01 08:21:39;;;;;;;7.70;4.00;;;15.80;47.50;;;16.08;41.19;97723.91;5022577;28;21170;-72
2023/05/01 08:24:10;;;;;;;7.07;4.37;;;16.20;48.00;;;16.54;41.08;97743.38;5037111;28;20455;-76
2023/05/01 08:26:37;;;;;;;4.73;4.30;;;16.60;48.10;;;16.68;39.79;97743.72;5035445;28;20452;-74
2023/05/01 08:29:05;;;;;;;4.60;4.20;;;16.90;47.30;;;16.55;40.44;97728.66;5030736;28;20473;-71
2023/05/01 08:31:36;;;;;;;6.80;4.80;;;17.00;47.40;;;16.57;40.40;97739.28;5032552;28;20480;-75
2023/05/01 08:34:04;;;;;;;6.10;4.90;;;16.90;47.50;;;16.01;40.39;97740.47;5016251;28;20462;-74
2023/05/01 08:36:31;;;;;;;8.00;5.30;;;16.70;46.60;;;16.46;40.13;97741.13;5040579;28;20490;-73
2023/05/01 08:38:59;;;;;;;4.63;4.13;;;16.70;47.00;;;16.12;40.18;97667.81;5035627;28;20442;-74
2023/05/01 08:41:28;;;;;;;4.93;4.50;;;16.80;47.20;;;16.61;39.54;97726.78;5032607;28;20469;-73
2023/05/01 08:43:58;;;;;;;4.00;3.70;;;17.00;46.70;;;17.17;39.88;97733.69;5003034;28;20462;-75
2023/05/01 08:46:43;;;;;;;5.20;4.70;;;17.20;47.30;;;16.81;38.76;97648.88;5045264;28;20567;-73
2023/05/01 08:49:13;;;;;;;6.73;4.90;;;17.50;46.90;;;17.52;38.97;97729.47;5046450;28;20456;-69
2023/05/01 08:51:45;;;;;;;5.10;4.60;;;17.60;46.80;;;17.34;38.78;97732.66;5031309;28;20457;-71
2023/05/01 08:54:14;;;;;;;5.23;4.70;;;17.70;46.50;;;17.20;38.60;97722.22;5013889;28;20453;-71
2023/05/01 08:56:45;;;;;;;5.97;4.33;;;17.70;46.20;;;17.25;38.89;97718.69;5031097;28;20568;-82
2023/05/01 08:59:14;;;;;;;6.40;4.00;;;17.60;46.40;;;16.75;39.14;97666.28;5034212;28;20460;-75
2023/05/01 09:01:44;;;;;;;3.87;3.57;;;17.40;46.00;;;17.45;38.30;97728.88;5033601;28;20946;-72
2023/05/01 09:04:13;;;;;;;4.00;3.70;;;17.70;46.10;;;17.55;37.91;97730.81;5015344;28;20504;-72
2023/05/01 09:06:43;;;;;;;4.23;3.40;;;17.60;46.10;;;17.30;37.03;97666.03;5014378;28;20854;-72
2023/05/01 09:09:10;;;;;;;4.40;3.80;;;18.00;45.20;;;17.73;37.17;97726.78;5014728;28;20527;-72
2023/05/01 09:11:38;;;;;;;4.40;4.00;;;17.90;45.10;;;18.32;36.26;97721.13;5027976;28;20454;-71
2023/05/01 09:14:07;;;;;;;4.27;3.73;;;18.20;45.20;;;18.35;37.76;97729.63;5039737;28;20460;-73
2023/05/01 09:16:34;;;;;;;4.00;3.50;;;18.40;46.50;;;17.75;37.65;97724.59;5015948;28;20463;-72
2023/05/01 09:19:05;;;;;;;4.03;3.63;;;18.20;45.40;;;17.50;37.70;97679.72;5031508;28;20493;-69
2023/05/01 09:21:32;;;;;;;5.40;4.63;;;18.00;45.50;;;17.25;36.99;97702.31;5026815;28;20540;-72
2023/05/01 09:24:00;;;;;;;4.90;4.50;;;17.90;44.80;;;17.30;37.41;97723.34;5041122;28;20467;-72
2023/05/01 09:26:27;;;;;;;4.53;3.97;;;17.70;45.00;;;17.48;37.53;97728.34;5033548;28;21087;-73
2023/05/01 09:28:56;;;;;;;6.40;4.50;;;17.80;45.30;;;18.10;37.36;97722.25;5017999;28;20461;-74
2023/05/01 09:31:27;;;;;;;5.23;4.00;;;18.00;45.80;;;17.93;37.67;97730.66;5034084;28;21007;-78
2023/05/01 09:33:57;;;;;;;5.13;3.83;;;18.10;45.50;;;17.52;37.37;97726.75;5043353;28;20464;-72
2023/05/01 09:36:29;;;;;;;5.53;4.93;;;17.90;44.90;;;16.92;38.11;97737.91;5018159;28;20477;-75
2023/05/01 09:38:59;;;;;;;4.27;3.50;;;17.40;44.70;;;16.64;40.18;97737.16;5014683;28;20465;-74
2023/05/01 09:41:26;;;;;;;4.43;4.03;;;16.90;45.50;;;16.88;38.62;97728.56;5024747;28;20453;-75
2023/05/01 09:44:19;;;;;;;6.07;4.10;;;17.10;45.30;;;16.56;39.16;97734.91;5032786;28;20464;-74
2023/05/01 09:47:04;;;;;;;6.97;4.20;;;16.80;45.20;;;16.79;38.61;97738.34;5034646;28;20447;-74
2023/05/01 09:49:52;;;;;;;4.33;3.93;;;16.80;45.50;;;17.34;37.88;97740.84;5041678;28;20465;-74
2023/05/01 09:52:51;;;;;;;4.50;4.10;;;17.30;45.00;;;17.07;38.60;97739.09;5041772;28;20440;-73
2023/05/01 09:55:38;;;;;;;5.00;4.20;;;17.30;45.10;;;17.65;37.12;97725.41;5042948;28;20466;-74
2023/05/01 09:58:28;;;;;;;6.70;5.10;;;17.60;44.90;;;17.28;37.80;97727.19;5037059;28;20460;-74
2023/05/01 10:01:16;;;;;;;4.63;4.10;;;17.60;44.80;;;17.70;37.22;97730.88;5049918;28;20452;-72
2023/05/01 10:04:04;;;;;;;4.93;4.37;;;17.50;44.90;;;17.45;37.74;97739.00;5040633;28;20450;-77
2023/05/01 10:06:52;;;;;;;4.83;3.90;;;17.70;44.90;;;17.36;37.81;97741.41;5038905;28;20575;-74
2023/05/01 10:09:41;;;;;;;6.20;4.30;;;17.60;44.70;;;18.27;36.85;97732.88;5040055;28;20464;-77
2023/05/01 10:12:32;;;;;;;4.90;4.47;;;18.10;45.30;;;18.31;36.51;97728.53;5037461;28;20524;-78
2023/05/01 10:15:20;;;;;;;4.60;4.10;;;18.40;44.80;;;18.06;36.63;97721.94;5029342;28;21083;-74
2023/05/01 10:18:10;;;;;;;4.40;4.00;;;18.50;44.50;;;18.10;36.63;97733.97;5038313;28;20623;-72
2023/05/01 10:20:57;;;;;;;3.83;3.53;;;18.40;44.80;;;17.62;37.76;97728.69;5038513;28;20449;-71
2023/05/01 10:23:45;;;;;;;5.20;4.50;;;18.20;44.70;;;17.41;38.12;97735.97;5043580;28;20528;-72
2023/05/01 10:26:34;;;;;;;4.70;4.30;;;17.80;44.80;;;17.42;38.63;97737.63;5039416;28;20545;-72
2023/05/01 10:29:24;;;;;;;4.57;4.17;;;17.70;45.20;;;17.35;40.39;97739.75;5028746;28;20471;-72
2023/05/01 10:32:12;;;;;;;6.00;4.67;;;17.70;46.40;;;16.75;42.29;97742.66;5028490;28;20568;-70
2023/05/01 10:35:04;;;;;;;4.93;4.30;;;17.10;47.20;;;16.27;43.32;97744.25;5027705;28;20460;-75
2023/05/01 10:38:01;;;;;;;5.20;4.73;;;16.70;48.00;;;16.48;44.06;97740.88;5050501;28;20588;-74
2023/05/01 10:40:49;;;;;;;6.10;4.03;;;16.50;48.90;;;16.40;46.99;97748.44;5037652;28;20448;-72
2023/05/01 10:43:38;;;;;;;5.00;4.60;;;16.60;50.80;;;16.79;44.76;97743.81;5038039;28;20507;-72
2023/05/01 10:46:29;;;;;;;5.37;4.50;;;16.70;49.90;;;16.03;48.05;97732.84;5037909;28;20523;-71
2023/05/01 10:49:18;;;;;;;5.93;4.70;;;16.60;51.80;;;15.69;49.07;97733.00;5042220;28;20467;-74